sensor_id;sensor_type;location;lat;lon;timestamp;P1;durP1;ratioP1;P2;durP2;ratioP2
20421;SDS011;10370;53.102;18.034;2023-11-19T00:03:52;103.80;;;39.80;;
20421;SDS011;10370;53.102;18.034;2023-11-19T00:09:15;99.30;;;36.93;;
20421;SDS011;10370;53.102;18.034;2023-11-19T00:14:39;119.37;;;39.20;;
20421;SDS011;10370;53.102;18.034;2023-11-19T00:20:02;109.63;;;39.47;;
20421;SDS011;10370;53.102;18.034;2023-11-19T00:25:27;94.50;;;36.30;;
20421;SDS011;10370;53.102;18.034;2023-11-19T00:30:53;87.63;;;34.07;;
20421;SDS011;10370;53.102;18.034;2023-11-19T00:36:28;93.63;;;37.20;;
20421;SDS011;10370;53.102;18.034;2023-11-19T00:41:50;91.30;;;34.90;;
20421;SDS011;10370;53.102;18.034;2023-11-19T00:47:13;101.13;;;37.93;;
20421;SDS011;10370;53.102;18.034;2023-11-19T00:52:36;80.50;;;31.93;;
20421;SDS011;10370;53.102;18.034;2023-11-19T00:57:59;75.27;;;28.97;;
20421;SDS011;10370;53.102;18.034;2023-11-19T01:03:22;70.83;;;28.57;;
20421;SDS011;10370;53.102;18.034;2023-11-19T01:08:45;67.00;;;28.37;;
20421;SDS011;10370;53.102;18.034;2023-11-19T01:14:07;87.07;;;30.33;;
20421;SDS011;10370;53.102;18.034;2023-11-19T01:19:30;82.87;;;31.20;;
20421;SDS011;10370;53.102;18.034;2023-11-19T01:24:53;86.60;;;31.87;;
20421;SDS011;10370;53.102;18.034;2023-11-19T01:30:16;93.83;;;34.10;;
20421;SDS011;10370;53.102;18.034;2023-11-19T01:35:38;87.37;;;33.90;;
20421;SDS011;10370;53.102;18.034;2023-11-19T01:41:01;100.47;;;36.90;;
20421;SDS011;10370;53.102;18.034;2023-11-19T01:46:25;93.13;;;37.07;;
20421;SDS011;10370;53.102;18.034;2023-11-19T01:51:48;99.73;;;36.90;;
20421;SDS011;10370;53.102;18.034;2023-11-19T01:57:18;97.27;;;34.30;;
20421;SDS011;10370;53.102;18.034;2023-11-19T02:02:42;91.90;;;33.90;;
20421;SDS011;10370;53.102;18.034;2023-11-19T02:08:06;92.60;;;36.40;;
20421;SDS011;10370;53.102;18.034;2023-11-19T02:13:29;93.90;;;34.57;;
20421;SDS011;10370;53.102;18.034;2023-11-19T02:18:52;95.53;;;36.30;;
20421;SDS011;10370;53.102;18.034;2023-11-19T02:24:24;91.53;;;35.83;;
20421;SDS011;10370;53.102;18.034;2023-11-19T02:29:53;88.07;;;34.90;;
20421;SDS011;10370;53.102;18.034;2023-11-19T02:35:16;93.60;;;34.03;;
20421;SDS011;10370;53.102;18.034;2023-11-19T02:40:53;103.30;;;38.83;;
20421;SDS011;10370;53.102;18.034;2023-11-19T02:46:26;100.27;;;36.97;;
20421;SDS011;10370;53.102;18.034;2023-11-19T02:51:49;100.97;;;36.77;;
20421;SDS011;10370;53.102;18.034;2023-11-19T02:57:12;96.00;;;36.37;;
20421;SDS011;10370;53.102;18.034;2023-11-19T03:03:16;92.50;;;35.07;;
20421;SDS011;10370;53.102;18.034;2023-11-19T03:08:44;93.50;;;34.63;;
20421;SDS011;10370;53.102;18.034;2023-11-19T03:14:07;89.87;;;33.23;;
20421;SDS011;10370;53.102;18.034;2023-11-19T03:19:29;92.13;;;32.23;;
20421;SDS011;10370;53.102;18.034;2023-11-19T03:24:52;82.80;;;31.47;;
20421;SDS011;10370;53.102;18.034;2023-11-19T03:30:15;81.50;;;30.33;;
20421;SDS011;10370;53.102;18.034;2023-11-19T03:35:54;78.10;;;27.70;;
20421;SDS011;10370;53.102;18.034;2023-11-19T03:41:19;69.97;;;27.43;;
20421;SDS011;10370;53.102;18.034;2023-11-19T03:46:42;81.20;;;30.43;;
20421;SDS011;10370;53.102;18.034;2023-11-19T03:52:08;69.37;;;27.17;;
20421;SDS011;10370;53.102;18.034;2023-11-19T03:57:41;67.27;;;26.50;;
20421;SDS011;10370;53.102;18.034;2023-11-19T04:03:04;62.17;;;24.83;;
20421;SDS011;10370;53.102;18.034;2023-11-19T04:08:27;56.60;;;22.37;;
20421;SDS011;10370;53.102;18.034;2023-11-19T04:13:49;58.10;;;21.80;;
20421;SDS011;10370;53.102;18.034;2023-11-19T04:19:12;53.63;;;20.73;;
20421;SDS011;10370;53.102;18.034;2023-11-19T04:30:37;49.50;;;19.43;;
20421;SDS011;10370;53.102;18.034;2023-11-19T04:35:59;51.67;;;19.40;;
20421;SDS011;10370;53.102;18.034;2023-11-19T04:41:22;47.80;;;19.53;;
20421;SDS011;10370;53.102;18.034;2023-11-19T04:46:45;51.77;;;20.83;;
20421;SDS011;10370;53.102;18.034;2023-11-19T04:52:08;58.43;;;21.57;;
20421;SDS011;10370;53.102;18.034;2023-11-19T04:57:31;54.30;;;19.97;;
20421;SDS011;10370;53.102;18.034;2023-11-19T05:02:54;50.40;;;18.93;;
20421;SDS011;10370;53.102;18.034;2023-11-19T05:08:17;45.07;;;17.87;;
20421;SDS011;10370;53.102;18.034;2023-11-19T05:13:43;37.07;;;15.20;;
20421;SDS011;10370;53.102;18.034;2023-11-19T05:19:08;34.13;;;15.37;;
20421;SDS011;10370;53.102;18.034;2023-11-19T05:24:31;39.13;;;15.50;;
20421;SDS011;10370;53.102;18.034;2023-11-19T05:29:54;36.33;;;14.00;;
20421;SDS011;10370;53.102;18.034;2023-11-19T05:35:17;38.17;;;15.60;;
20421;SDS011;10370;53.102;18.034;2023-11-19T05:40:40;34.97;;;14.30;;
20421;SDS011;10370;53.102;18.034;2023-11-19T05:46:04;30.60;;;14.10;;
20421;SDS011;10370;53.102;18.034;2023-11-19T05:51:39;35.23;;;14.10;;
20421;SDS011;10370;53.102;18.034;2023-11-19T05:57:04;37.80;;;14.73;;
20421;SDS011;10370;53.102;18.034;2023-11-19T06:02:27;34.97;;;14.53;;
20421;SDS011;10370;53.102;18.034;2023-11-19T06:07:49;32.67;;;14.23;;
20421;SDS011;10370;53.102;18.034;2023-11-19T06:13:13;33.50;;;14.63;;
20421;SDS011;10370;53.102;18.034;2023-11-19T06:18:37;29.73;;;12.87;;
20421;SDS011;10370;53.102;18.034;2023-11-19T06:24:00;37.47;;;15.80;;
20421;SDS011;10370;53.102;18.034;2023-11-19T06:29:22;33.90;;;13.93;;
20421;SDS011;10370;53.102;18.034;2023-11-19T06:34:45;40.47;;;15.33;;
20421;SDS011;10370;53.102;18.034;2023-11-19T06:40:07;34.47;;;14.30;;
20421;SDS011;10370;53.102;18.034;2023-11-19T06:45:34;35.60;;;15.53;;
20421;SDS011;10370;53.102;18.034;2023-11-19T06:50:59;34.13;;;14.77;;
20421;SDS011;10370;53.102;18.034;2023-11-19T06:56:23;40.77;;;15.03;;
20421;SDS011;10370;53.102;18.034;2023-11-19T07:01:46;59.67;;;25.73;;
20421;SDS011;10370;53.102;18.034;2023-11-19T07:07:09;40.70;;;16.23;;
20421;SDS011;10370;53.102;18.034;2023-11-19T07:12:31;35.60;;;15.03;;
20421;SDS011;10370;53.102;18.034;2023-11-19T07:17:54;36.50;;;15.13;;
20421;SDS011;10370;53.102;18.034;2023-11-19T07:23:19;39.20;;;15.50;;
20421;SDS011;10370;53.102;18.034;2023-11-19T07:28:43;47.17;;;17.90;;
20421;SDS011;10370;53.102;18.034;2023-11-19T07:34:06;50.57;;;17.43;;
20421;SDS011;10370;53.102;18.034;2023-11-19T07:39:31;37.87;;;15.23;;
20421;SDS011;10370;53.102;18.034;2023-11-19T07:45:03;43.03;;;16.43;;
20421;SDS011;10370;53.102;18.034;2023-11-19T07:50:27;59.83;;;19.67;;
20421;SDS011;10370;53.102;18.034;2023-11-19T07:55:50;44.07;;;17.20;;
20421;SDS011;10370;53.102;18.034;2023-11-19T08:01:13;37.43;;;15.53;;
20421;SDS011;10370;53.102;18.034;2023-11-19T08:06:37;46.17;;;18.77;;
20421;SDS011;10370;53.102;18.034;2023-11-19T08:12:00;52.93;;;19.50;;
20421;SDS011;10370;53.102;18.034;2023-11-19T08:17:30;47.67;;;18.13;;
20421;SDS011;10370;53.102;18.034;2023-11-19T08:22:53;44.37;;;17.40;;
20421;SDS011;10370;53.102;18.034;2023-11-19T08:28:16;41.63;;;16.50;;
20421;SDS011;10370;53.102;18.034;2023-11-19T08:33:39;50.63;;;18.67;;
20421;SDS011;10370;53.102;18.034;2023-11-19T08:39:01;43.53;;;17.03;;
20421;SDS011;10370;53.102;18.034;2023-11-19T08:44:25;47.50;;;18.47;;
20421;SDS011;10370;53.102;18.034;2023-11-19T08:49:56;42.63;;;16.43;;
20421;SDS011;10370;53.102;18.034;2023-11-19T08:55:22;54.23;;;20.30;;
20421;SDS011;10370;53.102;18.034;2023-11-19T09:00:46;44.13;;;17.67;;
20421;SDS011;10370;53.102;18.034;2023-11-19T09:06:12;42.07;;;17.10;;
20421;SDS011;10370;53.102;18.034;2023-11-19T09:11:48;64.30;;;22.47;;
20421;SDS011;10370;53.102;18.034;2023-11-19T09:17:10;45.07;;;18.00;;
20421;SDS011;10370;53.102;18.034;2023-11-19T09:22:33;53.37;;;19.80;;
20421;SDS011;10370;53.102;18.034;2023-11-19T09:27:56;52.57;;;19.93;;
20421;SDS011;10370;53.102;18.034;2023-11-19T09:33:18;54.03;;;20.43;;
20421;SDS011;10370;53.102;18.034;2023-11-19T09:38:45;333.03;;;93.33;;
20421;SDS011;10370;53.102;18.034;2023-11-19T09:44:08;162.30;;;58.50;;
20421;SDS011;10370;53.102;18.034;2023-11-19T09:49:33;78.90;;;27.90;;
20421;SDS011;10370;53.102;18.034;2023-11-19T09:54:58;53.80;;;21.80;;
20421;SDS011;10370;53.102;18.034;2023-11-19T10:00:30;81.57;;;34.33;;
20421;SDS011;10370;53.102;18.034;2023-11-19T10:05:54;76.40;;;30.53;;
20421;SDS011;10370;53.102;18.034;2023-11-19T10:12:10;56.27;;;22.43;;
20421;SDS011;10370;53.102;18.034;2023-11-19T10:17:33;60.13;;;24.97;;
20421;SDS011;10370;53.102;18.034;2023-11-19T10:23:00;64.97;;;25.03;;
20421;SDS011;10370;53.102;18.034;2023-11-19T10:28:22;61.13;;;25.40;;
20421;SDS011;10370;53.102;18.034;2023-11-19T10:33:49;65.97;;;27.83;;
20421;SDS011;10370;53.102;18.034;2023-11-19T10:39:23;56.90;;;22.77;;
20421;SDS011;10370;53.102;18.034;2023-11-19T10:45:05;57.60;;;22.67;;
20421;SDS011;10370;53.102;18.034;2023-11-19T10:50:44;57.27;;;21.67;;
20421;SDS011;10370;53.102;18.034;2023-11-19T10:56:11;60.50;;;22.43;;
20421;SDS011;10370;53.102;18.034;2023-11-19T11:01:39;61.20;;;23.50;;
20421;SDS011;10370;53.102;18.034;2023-11-19T11:07:07;76.90;;;30.00;;
20421;SDS011;10370;53.102;18.034;2023-11-19T11:12:40;93.03;;;32.97;;
20421;SDS011;10370;53.102;18.034;2023-11-19T11:18:04;79.37;;;28.80;;
20421;SDS011;10370;53.102;18.034;2023-11-19T11:40:43;104.83;;;38.77;;
20421;SDS011;10370;53.102;18.034;2023-11-19T11:51:57;92.50;;;32.67;;
20421;SDS011;10370;53.102;18.034;2023-11-19T11:57:20;88.13;;;33.57;;
20421;SDS011;10370;53.102;18.034;2023-11-19T12:09:21;83.13;;;31.90;;
20421;SDS011;10370;53.102;18.034;2023-11-19T12:14:59;84.63;;;30.30;;
20421;SDS011;10370;53.102;18.034;2023-11-19T12:20:29;155.80;;;48.23;;
20421;SDS011;10370;53.102;18.034;2023-11-19T12:25:58;79.97;;;30.27;;
20421;SDS011;10370;53.102;18.034;2023-11-19T12:31:21;94.03;;;32.50;;
20421;SDS011;10370;53.102;18.034;2023-11-19T12:36:43;80.93;;;30.30;;
20421;SDS011;10370;53.102;18.034;2023-11-19T12:42:06;82.20;;;29.50;;
20421;SDS011;10370;53.102;18.034;2023-11-19T12:47:28;72.70;;;25.30;;
20421;SDS011;10370;53.102;18.034;2023-11-19T12:52:55;71.27;;;25.63;;
20421;SDS011;10370;53.102;18.034;2023-11-19T12:58:34;74.13;;;26.70;;
20421;SDS011;10370;53.102;18.034;2023-11-19T13:04:14;64.33;;;23.20;;
20421;SDS011;10370;53.102;18.034;2023-11-19T13:09:41;71.73;;;26.87;;
20421;SDS011;10370;53.102;18.034;2023-11-19T13:15:04;65.77;;;23.80;;
20421;SDS011;10370;53.102;18.034;2023-11-19T13:20:27;61.53;;;22.00;;
20421;SDS011;10370;53.102;18.034;2023-11-19T13:25:50;75.27;;;26.93;;
20421;SDS011;10370;53.102;18.034;2023-11-19T13:31:13;98.80;;;37.50;;
20421;SDS011;10370;53.102;18.034;2023-11-19T13:36:43;61.43;;;23.40;;
20421;SDS011;10370;53.102;18.034;2023-11-19T13:42:06;69.57;;;24.00;;
20421;SDS011;10370;53.102;18.034;2023-11-19T13:47:31;102.37;;;38.50;;
20421;SDS011;10370;53.102;18.034;2023-11-19T13:52:54;68.07;;;24.30;;
20421;SDS011;10370;53.102;18.034;2023-11-19T13:58:17;63.10;;;23.10;;
20421;SDS011;10370;53.102;18.034;2023-11-19T14:03:41;64.80;;;24.33;;
20421;SDS011;10370;53.102;18.034;2023-11-19T14:09:04;76.13;;;27.70;;
20421;SDS011;10370;53.102;18.034;2023-11-19T14:14:29;66.23;;;23.37;;
20421;SDS011;10370;53.102;18.034;2023-11-19T14:19:51;85.67;;;31.40;;
20421;SDS011;10370;53.102;18.034;2023-11-19T14:25:14;93.17;;;31.30;;
20421;SDS011;10370;53.102;18.034;2023-11-19T14:30:37;74.97;;;27.43;;
20421;SDS011;10370;53.102;18.034;2023-11-19T14:36:00;97.63;;;33.93;;
20421;SDS011;10370;53.102;18.034;2023-11-19T14:41:22;92.73;;;30.23;;
20421;SDS011;10370;53.102;18.034;2023-11-19T14:46:45;70.23;;;24.47;;
20421;SDS011;10370;53.102;18.034;2023-11-19T14:52:08;66.07;;;24.37;;
20421;SDS011;10370;53.102;18.034;2023-11-19T14:57:34;65.70;;;23.70;;
20421;SDS011;10370;53.102;18.034;2023-11-19T15:02:59;72.80;;;26.30;;
20421;SDS011;10370;53.102;18.034;2023-11-19T15:08:22;70.30;;;24.80;;
20421;SDS011;10370;53.102;18.034;2023-11-19T15:13:44;59.17;;;23.07;;
20421;SDS011;10370;53.102;18.034;2023-11-19T15:19:07;67.63;;;23.90;;
20421;SDS011;10370;53.102;18.034;2023-11-19T15:24:42;60.93;;;22.03;;
20421;SDS011;10370;53.102;18.034;2023-11-19T15:30:05;61.63;;;23.93;;
20421;SDS011;10370;53.102;18.034;2023-11-19T15:35:43;64.27;;;23.90;;
20421;SDS011;10370;53.102;18.034;2023-11-19T15:41:06;70.37;;;25.73;;
20421;SDS011;10370;53.102;18.034;2023-11-19T15:47:09;87.40;;;30.23;;
20421;SDS011;10370;53.102;18.034;2023-11-19T15:52:47;67.17;;;24.73;;
20421;SDS011;10370;53.102;18.034;2023-11-19T16:04:38;75.27;;;26.40;;
20421;SDS011;10370;53.102;18.034;2023-11-19T16:10:34;83.47;;;29.23;;
20421;SDS011;10370;53.102;18.034;2023-11-19T16:16:26;64.03;;;23.07;;
20421;SDS011;10370;53.102;18.034;2023-11-19T16:22:11;75.07;;;26.87;;
20421;SDS011;10370;53.102;18.034;2023-11-19T16:28:12;65.83;;;25.03;;
20421;SDS011;10370;53.102;18.034;2023-11-19T16:33:52;64.57;;;23.93;;
20421;SDS011;10370;53.102;18.034;2023-11-19T16:39:46;62.17;;;22.20;;
20421;SDS011;10370;53.102;18.034;2023-11-19T16:45:24;64.53;;;24.40;;
20421;SDS011;10370;53.102;18.034;2023-11-19T16:51:18;65.73;;;23.40;;
20421;SDS011;10370;53.102;18.034;2023-11-19T16:57:08;65.13;;;24.00;;
20421;SDS011;10370;53.102;18.034;2023-11-19T17:03:26;58.50;;;20.93;;
20421;SDS011;10370;53.102;18.034;2023-11-19T17:15:45;67.60;;;23.07;;
20421;SDS011;10370;53.102;18.034;2023-11-19T17:21:30;68.13;;;26.13;;
20421;SDS011;10370;53.102;18.034;2023-11-19T17:27:27;63.43;;;24.97;;
20421;SDS011;10370;53.102;18.034;2023-11-19T17:33:05;68.73;;;26.57;;
20421;SDS011;10370;53.102;18.034;2023-11-19T17:38:53;60.57;;;23.43;;
20421;SDS011;10370;53.102;18.034;2023-11-19T17:44:36;57.83;;;23.47;;
20421;SDS011;10370;53.102;18.034;2023-11-19T17:50:11;56.90;;;22.70;;
20421;SDS011;10370;53.102;18.034;2023-11-19T18:02:29;57.00;;;21.90;;
20421;SDS011;10370;53.102;18.034;2023-11-19T18:08:05;52.53;;;20.67;;
20421;SDS011;10370;53.102;18.034;2023-11-19T18:13:54;80.87;;;29.60;;
20421;SDS011;10370;53.102;18.034;2023-11-19T18:19:38;68.17;;;23.50;;
20421;SDS011;10370;53.102;18.034;2023-11-19T18:25:23;53.43;;;20.03;;
20421;SDS011;10370;53.102;18.034;2023-11-19T18:31:07;53.60;;;21.10;;
20421;SDS011;10370;53.102;18.034;2023-11-19T18:37:07;51.77;;;20.27;;
20421;SDS011;10370;53.102;18.034;2023-11-19T18:42:53;54.97;;;20.60;;
20421;SDS011;10370;53.102;18.034;2023-11-19T18:48:43;50.53;;;19.33;;
20421;SDS011;10370;53.102;18.034;2023-11-19T18:54:39;48.30;;;19.03;;
20421;SDS011;10370;53.102;18.034;2023-11-19T19:00:24;54.57;;;20.00;;
20421;SDS011;10370;53.102;18.034;2023-11-19T19:06:33;46.47;;;18.73;;
20421;SDS011;10370;53.102;18.034;2023-11-19T19:12:16;47.50;;;17.83;;
20421;SDS011;10370;53.102;18.034;2023-11-19T19:18:03;49.67;;;20.70;;
20421;SDS011;10370;53.102;18.034;2023-11-19T19:23:43;44.00;;;18.20;;
20421;SDS011;10370;53.102;18.034;2023-11-19T19:29:20;45.40;;;18.40;;
20421;SDS011;10370;53.102;18.034;2023-11-19T19:35:00;46.00;;;20.13;;
20421;SDS011;10370;53.102;18.034;2023-11-19T19:53:38;44.63;;;17.93;;
20421;SDS011;10370;53.102;18.034;2023-11-19T19:59:22;53.00;;;21.57;;
20421;SDS011;10370;53.102;18.034;2023-11-19T20:04:58;53.20;;;22.73;;
20421;SDS011;10370;53.102;18.034;2023-11-19T20:10:41;47.10;;;19.53;;
20421;SDS011;10370;53.102;18.034;2023-11-19T20:16:23;56.83;;;24.13;;
20421;SDS011;10370;53.102;18.034;2023-11-19T20:21:45;72.00;;;27.90;;
20421;SDS011;10370;53.102;18.034;2023-11-19T20:27:08;68.80;;;29.47;;
20421;SDS011;10370;53.102;18.034;2023-11-19T20:32:37;72.83;;;29.87;;
20421;SDS011;10370;53.102;18.034;2023-11-19T20:37:59;55.17;;;23.30;;
20421;SDS011;10370;53.102;18.034;2023-11-19T20:43:24;54.13;;;22.47;;
20421;SDS011;10370;53.102;18.034;2023-11-19T20:48:48;67.80;;;26.13;;
20421;SDS011;10370;53.102;18.034;2023-11-19T20:54:11;65.30;;;26.13;;
20421;SDS011;10370;53.102;18.034;2023-11-19T20:59:34;73.37;;;32.17;;
20421;SDS011;10370;53.102;18.034;2023-11-19T21:04:57;53.80;;;21.63;;
20421;SDS011;10370;53.102;18.034;2023-11-19T21:10:20;48.93;;;20.23;;
20421;SDS011;10370;53.102;18.034;2023-11-19T21:15:42;47.10;;;18.57;;
20421;SDS011;10370;53.102;18.034;2023-11-19T21:21:19;51.73;;;20.63;;
20421;SDS011;10370;53.102;18.034;2023-11-19T21:26:46;45.60;;;18.70;;
20421;SDS011;10370;53.102;18.034;2023-11-19T21:32:12;47.93;;;19.47;;
20421;SDS011;10370;53.102;18.034;2023-11-19T21:38:22;86.93;;;34.03;;
20421;SDS011;10370;53.102;18.034;2023-11-19T21:50:20;54.50;;;21.60;;
20421;SDS011;10370;53.102;18.034;2023-11-19T21:55:49;69.37;;;27.40;;
20421;SDS011;10370;53.102;18.034;2023-11-19T22:01:35;70.80;;;26.63;;
20421;SDS011;10370;53.102;18.034;2023-11-19T22:06:58;56.63;;;24.13;;
20421;SDS011;10370;53.102;18.034;2023-11-19T22:12:29;64.23;;;26.17;;
20421;SDS011;10370;53.102;18.034;2023-11-19T22:17:51;59.03;;;24.47;;
20421;SDS011;10370;53.102;18.034;2023-11-19T22:23:15;63.80;;;24.83;;
20421;SDS011;10370;53.102;18.034;2023-11-19T22:28:37;62.93;;;24.60;;
20421;SDS011;10370;53.102;18.034;2023-11-19T22:34:02;57.70;;;21.73;;
20421;SDS011;10370;53.102;18.034;2023-11-19T22:39:26;58.30;;;23.30;;
20421;SDS011;10370;53.102;18.034;2023-11-19T22:44:49;62.87;;;23.83;;
20421;SDS011;10370;53.102;18.034;2023-11-19T22:50:12;88.57;;;28.23;;
20421;SDS011;10370;53.102;18.034;2023-11-19T22:55:42;56.03;;;23.27;;
20421;SDS011;10370;53.102;18.034;2023-11-19T23:01:05;78.17;;;30.97;;
20421;SDS011;10370;53.102;18.034;2023-11-19T23:06:28;71.13;;;28.07;;
20421;SDS011;10370;53.102;18.034;2023-11-19T23:11:54;64.07;;;26.07;;
20421;SDS011;10370;53.102;18.034;2023-11-19T23:17:17;53.47;;;20.57;;
20421;SDS011;10370;53.102;18.034;2023-11-19T23:22:41;52.47;;;20.60;;
20421;SDS011;10370;53.102;18.034;2023-11-19T23:28:04;52.83;;;20.13;;
20421;SDS011;10370;53.102;18.034;2023-11-19T23:33:28;53.87;;;18.77;;
20421;SDS011;10370;53.102;18.034;2023-11-19T23:38:50;46.83;;;20.13;;
20421;SDS011;10370;53.102;18.034;2023-11-19T23:44:14;47.80;;;18.53;;
20421;SDS011;10370;53.102;18.034;2023-11-19T23:49:41;58.40;;;20.13;;
20421;SDS011;10370;53.102;18.034;2023-11-19T23:55:03;58.90;;;20.57;;
